College Hill, Kentucky
Current Conditions -  °F | °C
As of 9:35 PM on Sunday 23 Nov 2014 (Local Time) from KI39 Reporting Station
Overcast Overcast  
Wind Chill: 59°   Ceiling: 4300
Heat Index: 59°   Visibility: 10mi
Dew Point: 52°   Wind: 16mph
Humidity: 77%   Direction: 170°S
Pressure: 29.41"   Gusts: 24mph
Location:  37.7874°N, 84.1208°W
Report Text: KI39 240235Z AUTO 17014G21KT 10SM SCT028 BKN043 OVC080 15/11 A2941 RMK AO2
Loading
Personal Weather Stations






























Interactive Weather Map New forecast layout! Learn more

10-Day Weather Forecast

Advertisements
Track Severe Weather on mobile